Time;durP1;ratioP1;P1;durP2;ratioP2;P2;SDS_P1;SDS_P2;PMS_P1;PMS_P2;Temp;Humidity;BMP_temperature;BMP_pressure;BME280_temperature;BME280_humidity;BME280_pressure;Samples;Min_cycle;Max_cycle;Signal;HPM_P1;HPM_P2
2024/01/22 00:02:05;;;;;;;6.53;4.97;;;;;;;;;;5033571;28;20213;-78
2024/01/22 00:04:33;;;;;;;6.53;4.87;;;;;;;;;;5025395;28;20661;-81
2024/01/22 00:07:00;;;;;;;7.07;4.80;;;;;;;;;;5031217;28;20609;-80
2024/01/22 00:09:27;;;;;;;6.63;4.87;;;;;;;;;;5033161;28;20432;-84
2024/01/22 00:11:54;;;;;;;9.93;5.40;;;;;;;;;;5036050;28;20292;-81
2024/01/22 00:14:22;;;;;;;6.97;4.90;;;;;;;;;;5025511;28;20269;-82
2024/01/22 00:16:49;;;;;;;6.80;5.30;;;;;;;;;;5029236;28;20727;-81
2024/01/22 00:19:16;;;;;;;6.47;5.07;;;;;;;;;;5029760;28;20215;-81
2024/01/22 00:21:44;;;;;;;6.00;4.90;;;;;;;;;;5033760;28;20219;-80
2024/01/22 00:24:11;;;;;;;7.87;4.90;;;;;;;;;;5027166;28;20232;-80
2024/01/22 00:26:38;;;;;;;6.77;4.83;;;;;;;;;;5029533;28;20238;-80
2024/01/22 00:29:06;;;;;;;12.07;5.90;;;;;;;;;;5031261;28;20570;-83
2024/01/22 00:31:33;;;;;;;5.57;4.73;;;;;;;;;;5030785;28;20227;-83
2024/01/22 00:34:00;;;;;;;6.87;4.97;;;;;;;;;;5028131;28;20240;-82
2024/01/22 00:36:28;;;;;;;5.07;4.57;;;;;;;;;;5012729;28;20254;-81
2024/01/22 00:38:55;;;;;;;6.37;4.73;;;;;;;;;;5033029;28;20588;-78
2024/01/22 00:41:23;;;;;;;5.77;4.97;;;;;;;;;;5032386;28;20222;-83
2024/01/22 00:43:50;;;;;;;7.20;4.90;;;;;;;;;;5013090;28;20608;-80
2024/01/22 00:46:17;;;;;;;5.53;4.40;;;;;;;;;;5031436;28;20279;-79
2024/01/22 00:48:44;;;;;;;6.20;4.63;;;;;;;;;;5030517;28;20203;-79
2024/01/22 00:51:12;;;;;;;5.93;4.30;;;;;;;;;;5030006;28;20250;-79
2024/01/22 00:53:39;;;;;;;5.83;4.43;;;;;;;;;;5022809;28;20626;-79
2024/01/22 00:56:07;;;;;;;5.67;4.17;;;;;;;;;;5030447;28;20210;-79
2024/01/22 00:58:36;;;;;;;5.90;4.30;;;;;;;;;;5028914;28;20214;-81
2024/01/22 01:01:05;;;;;;;7.80;4.90;;;;;;;;;;5030510;28;20223;-82
2024/01/22 01:03:33;;;;;;;5.90;4.53;;;;;;;;;;5030687;28;20609;-81
2024/01/22 01:06:00;;;;;;;5.77;4.73;;;;;;;;;;5014128;28;20203;-80
2024/01/22 01:08:27;;;;;;;6.23;4.63;;;;;;;;;;5029932;28;20281;-82
2024/01/22 01:10:54;;;;;;;5.80;4.33;;;;;;;;;;5030623;28;20273;-81
2024/01/22 01:13:22;;;;;;;5.10;4.57;;;;;;;;;;5030318;28;20312;-81
2024/01/22 01:15:49;;;;;;;8.00;4.83;;;;;;;;;;5029101;28;20210;-80
2024/01/22 01:18:16;;;;;;;5.83;4.30;;;;;;;;;;5029757;28;20699;-82
2024/01/22 01:20:43;;;;;;;5.63;4.47;;;;;;;;;;5030906;28;20283;-79
2024/01/22 01:23:11;;;;;;;7.53;4.93;;;;;;;;;;5032105;28;20219;-79
2024/01/22 01:25:38;;;;;;;6.83;4.63;;;;;;;;;;5030490;28;20205;-81
2024/01/22 01:28:05;;;;;;;5.67;4.50;;;;;;;;;;5027551;28;20199;-83
2024/01/22 01:30:33;;;;;;;6.60;4.93;;;;;;;;;;5027762;28;20214;-82
2024/01/22 01:33:00;;;;;;;5.87;4.47;;;;;;;;;;5010614;28;20718;-81
2024/01/22 01:35:28;;;;;;;5.60;4.37;;;;;;;;;;5025001;28;20290;-82
2024/01/22 01:37:55;;;;;;;7.23;5.00;;;;;;;;;;5028230;28;20210;-81
2024/01/22 01:40:22;;;;;;;6.17;4.53;;;;;;;;;;5033079;28;20217;-82
2024/01/22 01:42:49;;;;;;;5.83;4.40;;;;;;;;;;5026234;28;20284;-81
2024/01/22 01:45:17;;;;;;;6.27;4.70;;;;;;;;;;5030431;28;20210;-79
2024/01/22 01:47:50;;;;;;;7.23;4.60;;;;;;;;;;5014065;28;20196;-81
2024/01/22 01:50:17;;;;;;;5.97;4.87;;;;;;;;;;5021639;28;20207;-77
2024/01/22 01:52:46;;;;;;;6.33;4.33;;;;;;;;;;5028949;28;20602;-81
2024/01/22 01:55:13;;;;;;;5.87;4.67;;;;;;;;;;5026498;28;20235;-80
2024/01/22 01:57:41;;;;;;;5.83;4.40;;;;;;;;;;5024302;28;20685;-84
2024/01/22 02:00:14;;;;;;;6.57;4.27;;;;;;;;;;5030529;28;20234;-76
2024/01/22 02:02:42;;;;;;;4.60;4.17;;;;;;;;;;5027692;28;20268;-79
2024/01/22 02:05:09;;;;;;;5.50;4.27;;;;;;;;;;5015681;28;20260;-81
2024/01/22 02:07:37;;;;;;;7.00;4.13;;;;;;;;;;5008823;28;20756;-84
2024/01/22 02:10:04;;;;;;;5.17;4.20;;;;;;;;;;5029853;28;20303;-80
2024/01/22 02:12:31;;;;;;;5.67;3.93;;;;;;;;;;5025995;28;20708;-84
2024/01/22 02:14:58;;;;;;;5.07;4.50;;;;;;;;;;5028793;28;20209;-79
2024/01/22 02:17:26;;;;;;;7.07;4.90;;;;;;;;;;5024440;28;20207;-80
2024/01/22 02:19:53;;;;;;;7.40;5.00;;;;;;;;;;5022303;28;20213;-81
2024/01/22 02:22:20;;;;;;;7.23;5.17;;;;;;;;;;5027457;28;20222;-81
2024/01/22 02:24:47;;;;;;;5.37;3.70;;;;;;;;;;5026290;28;20199;-80
2024/01/22 02:27:16;;;;;;;5.50;3.97;;;;;;;;;;5024538;28;20622;-80
2024/01/22 02:29:44;;;;;;;5.97;3.57;;;;;;;;;;5024686;28;20215;-79
2024/01/22 02:32:11;;;;;;;4.73;3.90;;;;;;;;;;5023894;28;20207;-82
2024/01/22 02:34:38;;;;;;;6.67;4.00;;;;;;;;;;5026627;28;20586;-82
2024/01/22 02:37:05;;;;;;;5.53;3.87;;;;;;;;;;5029781;28;20264;-81
2024/01/22 02:39:33;;;;;;;5.83;4.20;;;;;;;;;;5028970;28;20750;-81
2024/01/22 02:42:00;;;;;;;4.93;3.77;;;;;;;;;;5030860;28;20235;-81
2024/01/22 02:44:27;;;;;;;5.60;4.17;;;;;;;;;;5020856;28;20227;-82
2024/01/22 02:46:54;;;;;;;5.40;4.27;;;;;;;;;;5028946;28;20217;-82
2024/01/22 02:49:23;;;;;;;5.67;4.00;;;;;;;;;;5009350;28;20207;-81
2024/01/22 02:51:50;;;;;;;4.97;4.17;;;;;;;;;;5025257;28;20211;-79
2024/01/22 02:54:18;;;;;;;7.03;4.47;;;;;;;;;;5025881;28;20666;-82
2024/01/22 02:56:45;;;;;;;6.90;4.53;;;;;;;;;;5009073;28;20210;-80
2024/01/22 02:59:13;;;;;;;8.13;4.87;;;;;;;;;;5016555;28;20233;-81
2024/01/22 03:01:40;;;;;;;6.20;4.80;;;;;;;;;;5007404;28;20231;-80
2024/01/22 03:04:08;;;;;;;7.00;4.67;;;;;;;;;;5004642;28;20219;-82
2024/01/22 03:06:37;;;;;;;6.93;5.00;;;;;;;;;;5024409;28;20245;-80
2024/01/22 03:09:05;;;;;;;6.23;4.53;;;;;;;;;;5029633;28;20599;-80
2024/01/22 03:11:32;;;;;;;7.20;4.83;;;;;;;;;;5028217;28;20644;-84
2024/01/22 03:13:59;;;;;;;5.13;4.67;;;;;;;;;;5023191;28;20232;-81
2024/01/22 03:16:27;;;;;;;8.13;5.80;;;;;;;;;;5018807;28;20261;-82
2024/01/22 03:18:54;;;;;;;7.93;5.47;;;;;;;;;;5010577;28;20257;-81
2024/01/22 03:21:21;;;;;;;8.20;5.50;;;;;;;;;;5020275;28;20230;-82
2024/01/22 03:23:48;;;;;;;10.77;5.50;;;;;;;;;;5021627;28;20234;-82
2024/01/22 03:26:22;;;;;;;6.63;5.50;;;;;;;;;;5023057;28;20263;-84
2024/01/22 03:28:52;;;;;;;6.57;5.07;;;;;;;;;;5008084;28;20244;-80
2024/01/22 03:31:23;;;;;;;6.63;5.00;;;;;;;;;;5025992;28;20210;-80
2024/01/22 03:33:54;;;;;;;6.63;5.20;;;;;;;;;;5024962;28;21337;-79
2024/01/22 03:36:22;;;;;;;6.73;5.17;;;;;;;;;;5021567;28;20214;-82
2024/01/22 03:38:50;;;;;;;7.20;5.70;;;;;;;;;;5030026;28;20222;-83
2024/01/22 03:41:17;;;;;;;6.50;5.20;;;;;;;;;;5031232;28;20234;-84
2024/01/22 03:43:45;;;;;;;8.20;5.17;;;;;;;;;;5028157;28;20235;-82
2024/01/22 03:46:12;;;;;;;8.10;5.03;;;;;;;;;;5035274;28;20230;-82
2024/01/22 03:48:40;;;;;;;8.50;4.77;;;;;;;;;;5039559;28;20270;-82
2024/01/22 03:51:07;;;;;;;12.10;5.33;;;;;;;;;;5052357;28;20202;-77
2024/01/22 03:53:35;;;;;;;7.43;4.97;;;;;;;;;;5034786;28;20211;-79
2024/01/22 03:56:06;;;;;;;6.60;5.00;;;;;;;;;;5054866;28;20195;-78
2024/01/22 03:58:34;;;;;;;6.03;4.63;;;;;;;;;;5048533;28;20489;-78
2024/01/22 04:01:02;;;;;;;7.03;5.13;;;;;;;;;;5049544;28;20232;-82
2024/01/22 04:03:31;;;;;;;6.40;4.93;;;;;;;;;;5030898;28;20229;-81
2024/01/22 04:05:59;;;;;;;7.10;4.83;;;;;;;;;;5009094;28;20206;-81
2024/01/22 04:08:26;;;;;;;7.23;4.57;;;;;;;;;;5027681;28;20305;-82
2024/01/22 04:10:53;;;;;;;7.43;5.17;;;;;;;;;;5017715;28;20524;-84
2024/01/22 04:13:21;;;;;;;5.67;5.07;;;;;;;;;;5031059;28;20222;-81
2024/01/22 04:16:00;;;;;;;5.60;5.00;;;;;;;;;;5023419;28;20222;-80
2024/01/22 04:18:28;;;;;;;6.80;4.27;;;;;;;;;;5012149;28;20559;-82
2024/01/22 04:20:56;;;;;;;9.00;5.03;;;;;;;;;;5026195;28;20194;-83
2024/01/22 04:23:23;;;;;;;6.57;4.70;;;;;;;;;;5007758;28;20681;-81
2024/01/22 04:25:50;;;;;;;6.67;4.80;;;;;;;;;;5016218;28;20850;-80
2024/01/22 04:28:17;;;;;;;6.57;5.10;;;;;;;;;;5027999;28;20206;-81
2024/01/22 04:30:45;;;;;;;4.97;4.30;;;;;;;;;;5026964;28;20214;-82
2024/01/22 04:33:13;;;;;;;5.87;5.27;;;;;;;;;;5030777;28;20231;-80
2024/01/22 04:35:41;;;;;;;5.87;4.60;;;;;;;;;;5027502;28;20282;-79
2024/01/22 04:38:08;;;;;;;5.33;4.80;;;;;;;;;;5026924;28;20628;-81
2024/01/22 04:40:36;;;;;;;6.87;4.53;;;;;;;;;;5024772;28;20221;-82
2024/01/22 04:43:03;;;;;;;9.27;5.27;;;;;;;;;;5022333;28;20251;-81
2024/01/22 04:45:30;;;;;;;10.30;6.33;;;;;;;;;;5005788;28;20210;-79
2024/01/22 04:47:58;;;;;;;13.97;6.43;;;;;;;;;;5033613;28;20238;-81
2024/01/22 04:50:25;;;;;;;5.57;4.30;;;;;;;;;;5018443;28;20207;-82
2024/01/22 04:52:52;;;;;;;6.27;4.60;;;;;;;;;;5031200;28;20771;-81
2024/01/22 04:55:20;;;;;;;4.93;4.30;;;;;;;;;;5026310;28;20222;-81
2024/01/22 04:57:50;;;;;;;5.20;4.60;;;;;;;;;;5030554;28;20271;-81
2024/01/22 05:00:17;;;;;;;6.20;4.97;;;;;;;;;;5032910;28;20240;-84
2024/01/22 05:02:45;;;;;;;5.63;4.80;;;;;;;;;;5027631;28;20323;-83
2024/01/22 05:05:15;;;;;;;8.13;4.80;;;;;;;;;;5030170;28;20676;-79
2024/01/22 05:07:43;;;;;;;7.53;4.80;;;;;;;;;;5011529;28;20638;-79
2024/01/22 05:10:10;;;;;;;7.70;4.77;;;;;;;;;;5018930;28;20207;-77
2024/01/22 05:12:38;;;;;;;6.97;4.60;;;;;;;;;;5031756;28;20226;-81
2024/01/22 05:15:05;;;;;;;7.03;4.60;;;;;;;;;;5038525;28;20222;-80
2024/01/22 05:17:33;;;;;;;6.27;4.80;;;;;;;;;;5031692;28;20223;-82
2024/01/22 05:20:00;;;;;;;6.57;5.40;;;;;;;;;;5033840;28;20214;-81
2024/01/22 05:22:28;;;;;;;8.13;4.93;;;;;;;;;;5028352;28;20257;-81
2024/01/22 05:24:55;;;;;;;7.10;4.90;;;;;;;;;;5032889;28;20207;-80
2024/01/22 05:27:24;;;;;;;6.53;4.73;;;;;;;;;;5004329;28;20206;-81
2024/01/22 05:29:53;;;;;;;7.10;4.43;;;;;;;;;;5027149;28;20207;-78
2024/01/22 05:32:21;;;;;;;5.47;4.23;;;;;;;;;;5029219;28;20240;-82
2024/01/22 05:34:49;;;;;;;5.93;4.73;;;;;;;;;;5016166;28;20223;-81
2024/01/22 05:37:17;;;;;;;5.50;4.60;;;;;;;;;;5026120;28;20272;-80
2024/01/22 05:39:44;;;;;;;4.43;3.93;;;;;;;;;;5029604;28;20211;-81
2024/01/22 05:42:11;;;;;;;4.63;3.93;;;;;;;;;;5032909;28;20612;-80
2024/01/22 05:44:39;;;;;;;4.60;3.90;;;;;;;;;;5012536;28;20294;-81
2024/01/22 05:47:06;;;;;;;5.57;4.43;;;;;;;;;;5025662;28;20208;-81
2024/01/22 05:49:33;;;;;;;6.60;4.47;;;;;;;;;;5013333;28;20213;-79
2024/01/22 05:52:01;;;;;;;6.33;4.47;;;;;;;;;;5027354;28;20213;-84
2024/01/22 05:54:29;;;;;;;4.87;4.37;;;;;;;;;;5013341;28;20229;-86
2024/01/22 05:56:58;;;;;;;5.17;4.67;;;;;;;;;;5010038;28;20210;-83
2024/01/22 05:59:25;;;;;;;6.20;4.73;;;;;;;;;;5027900;28;20218;-80
2024/01/22 06:01:55;;;;;;;5.00;4.50;;;;;;;;;;5008592;28;20238;-83
2024/01/22 06:04:25;;;;;;;5.23;4.43;;;;;;;;;;4993960;28;20310;-83
2024/01/22 06:06:52;;;;;;;5.33;4.83;;;;;;;;;;5027061;28;20211;-80
2024/01/22 06:09:20;;;;;;;4.93;4.27;;;;;;;;;;5018774;28;20230;-84
2024/01/22 06:11:47;;;;;;;5.70;4.80;;;;;;;;;;5007402;28;20208;-81
2024/01/22 06:14:16;;;;;;;7.73;4.53;;;;;;;;;;5017942;28;20246;-79
2024/01/22 06:16:46;;;;;;;4.60;4.20;;;;;;;;;;5025604;28;20202;-80
2024/01/22 06:19:13;;;;;;;5.00;4.50;;;;;;;;;;5029320;28;20217;-79
2024/01/22 06:21:41;;;;;;;5.00;4.50;;;;;;;;;;5022380;28;20590;-84
2024/01/22 06:24:08;;;;;;;8.00;4.90;;;;;;;;;;5025352;28;20223;-81
2024/01/22 06:26:36;;;;;;;7.63;4.97;;;;;;;;;;5008683;28;20207;-81
2024/01/22 06:29:03;;;;;;;6.47;4.57;;;;;;;;;;5024160;28;20257;-85
2024/01/22 06:31:31;;;;;;;4.33;3.87;;;;;;;;;;5015472;28;20217;-81
2024/01/22 06:33:58;;;;;;;7.43;4.53;;;;;;;;;;5009952;28;20230;-79
2024/01/22 06:36:28;;;;;;;12.77;6.60;;;;;;;;;;5025923;28;20479;-83
2024/01/22 06:38:55;;;;;;;9.07;5.80;;;;;;;;;;5024902;28;20211;-79
2024/01/22 06:41:23;;;;;;;8.10;5.13;;;;;;;;;;5018183;28;20605;-79
2024/01/22 06:43:51;;;;;;;7.23;5.10;;;;;;;;;;5023408;28;20255;-82
2024/01/22 06:46:18;;;;;;;6.73;4.90;;;;;;;;;;5006108;28;20669;-82
2024/01/22 06:48:47;;;;;;;6.70;4.70;;;;;;;;;;5022199;28;20215;-82
2024/01/22 06:51:15;;;;;;;4.93;4.00;;;;;;;;;;5024313;28;20223;-83
2024/01/22 06:53:47;;;;;;;4.47;3.67;;;;;;;;;;5024461;28;20237;-81
2024/01/22 06:56:15;;;;;;;4.87;4.23;;;;;;;;;;5029014;28;20553;-84
2024/01/22 06:58:46;;;;;;;5.10;4.10;;;;;;;;;;5023334;28;20206;-83
2024/01/22 07:01:14;;;;;;;4.57;3.63;;;;;;;;;;5007972;28;20700;-80
2024/01/22 07:03:41;;;;;;;5.47;4.03;;;;;;;;;;5023550;28;20255;-85
2024/01/22 07:06:09;;;;;;;4.13;3.73;;;;;;;;;;5007384;28;20263;-83
2024/01/22 07:08:36;;;;;;;4.30;3.73;;;;;;;;;;5026066;28;20202;-84
2024/01/22 07:11:05;;;;;;;5.67;3.97;;;;;;;;;;5025563;28;20203;-84
2024/01/22 07:13:32;;;;;;;5.53;4.00;;;;;;;;;;5027519;28;20227;-82
2024/01/22 07:16:00;;;;;;;3.97;3.57;;;;;;;;;;5012692;28;20603;-85
2024/01/22 07:18:28;;;;;;;4.40;3.27;;;;;;;;;;5008564;28;20253;-84
2024/01/22 07:20:55;;;;;;;4.73;3.93;;;;;;;;;;5012985;28;20215;-82
2024/01/22 07:23:23;;;;;;;3.50;3.20;;;;;;;;;;5032369;28;20829;-80
2024/01/22 07:25:51;;;;;;;4.50;3.53;;;;;;;;;;5032359;28;20208;-84
2024/01/22 07:28:18;;;;;;;4.13;3.73;;;;;;;;;;5048466;28;20186;-77
2024/01/22 07:30:45;;;;;;;4.67;3.13;;;;;;;;;;5035128;28;20195;-77
2024/01/22 07:33:12;;;;;;;3.37;3.07;;;;;;;;;;5025960;28;20341;-82
2024/01/22 07:35:40;;;;;;;4.37;3.10;;;;;;;;;;5011060;28;20261;-82
2024/01/22 07:38:07;;;;;;;3.20;2.90;;;;;;;;;;5032466;28;20217;-81
2024/01/22 07:40:34;;;;;;;3.30;3.07;;;;;;;;;;5023680;28;20249;-77
2024/01/22 07:43:02;;;;;;;5.67;3.87;;;;;;;;;;5033468;28;20238;-81
2024/01/22 07:45:29;;;;;;;4.13;3.30;;;;;;;;;;5025838;28;20211;-85
2024/01/22 07:47:59;;;;;;;3.63;3.13;;;;;;;;;;5033578;28;20210;-86
2024/01/22 07:50:27;;;;;;;4.03;3.20;;;;;;;;;;5016186;28;20202;-86
2024/01/22 07:52:54;;;;;;;3.87;3.17;;;;;;;;;;5009972;28;20866;-79
2024/01/22 07:55:22;;;;;;;3.20;2.90;;;;;;;;;;5020555;28;20261;-81
2024/01/22 07:57:49;;;;;;;3.70;3.40;;;;;;;;;;4996971;28;20210;-83
2024/01/22 08:00:17;;;;;;;5.20;3.30;;;;;;;;;;4998852;28;20908;-82
2024/01/22 08:02:45;;;;;;;3.60;3.10;;;;;;;;;;5004934;28;20310;-83
2024/01/22 08:05:13;;;;;;;3.73;3.20;;;;;;;;;;5003105;28;20214;-83
2024/01/22 08:07:44;;;;;;;4.80;3.60;;;;;;;;;;5023141;28;20209;-84
2024/01/22 08:10:12;;;;;;;3.90;3.33;;;;;;;;;;5015716;28;20203;-84
2024/01/22 08:12:40;;;;;;;6.83;3.67;;;;;;;;;;5018603;28;20237;-82
2024/01/22 08:15:09;;;;;;;6.90;3.30;;;;;;;;;;5022123;28;20704;-82
2024/01/22 08:17:37;;;;;;;3.67;3.33;;;;;;;;;;5022452;28;20211;-80
2024/01/22 08:20:07;;;;;;;3.77;3.47;;;;;;;;;;5031418;28;20813;-83
2024/01/22 08:22:34;;;;;;;4.53;3.43;;;;;;;;;;5009629;28;20450;-82
2024/01/22 08:25:03;;;;;;;3.53;3.23;;;;;;;;;;5031617;28;20210;-83
2024/01/22 08:27:30;;;;;;;4.23;3.37;;;;;;;;;;5034068;28;20419;-79
2024/01/22 08:29:58;;;;;;;5.80;3.73;;;;;;;;;;5029334;28;20285;-80
2024/01/22 08:32:25;;;;;;;5.40;3.70;;;;;;;;;;5028601;28;20596;-81
2024/01/22 08:34:53;;;;;;;6.33;3.90;;;;;;;;;;5023511;28;20240;-82
2024/01/22 08:37:22;;;;;;;5.07;3.73;;;;;;;;;;5023661;28;20266;-84
2024/01/22 08:39:49;;;;;;;5.37;3.80;;;;;;;;;;5008521;28;20215;-84
2024/01/22 08:42:16;;;;;;;4.40;3.33;;;;;;;;;;5027785;28;20230;-82
2024/01/22 08:44:44;;;;;;;3.67;3.37;;;;;;;;;;5013130;28;20201;-85
2024/01/22 08:47:12;;;;;;;4.53;3.30;;;;;;;;;;5031647;28;20199;-81
2024/01/22 08:49:39;;;;;;;4.03;3.27;;;;;;;;;;5028330;28;20195;-79
2024/01/22 08:52:07;;;;;;;4.73;3.03;;;;;;;;;;5027930;28;20202;-81
2024/01/22 08:54:34;;;;;;;3.97;3.40;;;;;;;;;;5006527;28;20211;-79
2024/01/22 08:57:02;;;;;;;5.53;3.27;;;;;;;;;;5030527;28;20207;-80
2024/01/22 08:59:29;;;;;;;4.93;3.17;;;;;;;;;;5036547;28;20211;-77
2024/01/22 09:01:57;;;;;;;4.70;2.90;;;;;;;;;;5056065;28;20190;-75
2024/01/22 09:04:24;;;;;;;3.10;2.80;;;;;;;;;;5041033;28;20237;-83
2024/01/22 09:06:52;;;;;;;3.60;3.30;;;;;;;;;;5028532;28;20217;-83
2024/01/22 09:09:19;;;;;;;3.43;3.00;;;;;;;;;;5005227;28;20218;-83
2024/01/22 09:11:47;;;;;;;4.07;3.13;;;;;;;;;;5026689;28;20583;-85
2024/01/22 09:14:14;;;;;;;3.80;3.20;;;;;;;;;;5017345;28;20249;-81
2024/01/22 09:16:41;;;;;;;3.67;3.00;;;;;;;;;;5012960;28;20305;-82
2024/01/22 09:19:09;;;;;;;3.77;3.37;;;;;;;;;;5030872;28;20563;-79
2024/01/22 09:21:36;;;;;;;5.57;3.27;;;;;;;;;;5026057;28;20245;-80
2024/01/22 09:24:04;;;;;;;4.73;3.40;;;;;;;;;;5029722;28;20223;-80
2024/01/22 09:26:31;;;;;;;4.37;3.60;;;;;;;;;;5027522;28;20212;-82
2024/01/22 09:28:58;;;;;;;5.27;3.77;;;;;;;;;;5025256;28;20257;-82
2024/01/22 09:31:29;;;;;;;4.93;3.83;;;;;;;;;;5008208;28;20203;-83
2024/01/22 09:33:57;;;;;;;6.70;4.43;;;;;;;;;;5002754;28;20218;-83
2024/01/22 09:36:29;;;;;;;3.83;3.50;;;;;;;;;;5014755;28;20238;-85
2024/01/22 09:38:58;;;;;;;4.37;3.33;;;;;;;;;;5011386;28;20214;-79
2024/01/22 09:41:27;;;;;;;4.03;3.63;;;;;;;;;;5032399;28;20717;-81
2024/01/22 09:43:55;;;;;;;3.87;3.07;;;;;;;;;;5033077;28;20245;-80
2024/01/22 09:46:24;;;;;;;4.17;3.30;;;;;;;;;;5029718;28;20199;-83
2024/01/22 09:48:53;;;;;;;3.80;3.40;;;;;;;;;;5031434;28;20209;-83
2024/01/22 09:51:22;;;;;;;3.77;3.30;;;;;;;;;;5030101;28;20234;-83
2024/01/22 09:53:51;;;;;;;3.77;2.93;;;;;;;;;;5030228;28;20462;-83
2024/01/22 09:56:20;;;;;;;3.73;3.10;;;;;;;;;;5028986;28;20211;-86
2024/01/22 09:58:49;;;;;;;4.63;2.93;;;;;;;;;;5019348;28;20214;-82
2024/01/22 10:01:17;;;;;;;2.70;2.50;;;;;;;;;;5025324;28;20203;-81
2024/01/22 10:03:45;;;;;;;2.63;2.30;;;;;;;;;;5002293;28;20242;-81
2024/01/22 10:06:14;;;;;;;4.23;2.30;;;;;;;;;;5018928;28;20206;-82
2024/01/22 10:08:42;;;;;;;2.80;2.50;;;;;;;;;;5020700;28;20211;-81
2024/01/22 10:11:10;;;;;;;2.33;2.13;;;;;;;;;;5024671;28;20199;-84
2024/01/22 10:13:50;;;;;;;2.83;2.33;;;;;;;;;;5027117;28;20258;-83
2024/01/22 10:16:18;;;;;;;4.07;2.37;;;;;;;;;;5025567;28;20225;-80
2024/01/22 10:18:58;;;;;;;2.30;2.10;;;;;;;;;;5011495;28;20215;-84
2024/01/22 10:21:26;;;;;;;3.90;2.30;;;;;;;;;;5000801;28;20214;-83
2024/01/22 10:23:57;;;;;;;2.60;2.37;;;;;;;;;;5024683;28;20238;-84
2024/01/22 10:26:25;;;;;;;2.20;2.00;;;;;;;;;;5025286;28;20199;-86
2024/01/22 10:28:54;;;;;;;2.00;1.80;;;;;;;;;;5030321;28;20223;-84
2024/01/22 10:31:22;;;;;;;3.20;2.00;;;;;;;;;;5010551;28;20199;-81
2024/01/22 10:33:50;;;;;;;2.57;1.70;;;;;;;;;;5026226;28;20720;-83
2024/01/22 10:36:21;;;;;;;1.50;1.40;;;;;;;;;;5024247;28;20193;-85
2024/01/22 10:39:02;;;;;;;2.00;1.77;;;;;;;;;;5042319;28;20226;-82
2024/01/22 10:41:30;;;;;;;1.60;1.50;;;;;;;;;;5046307;28;20312;-80
2024/01/22 10:43:58;;;;;;;1.87;1.40;;;;;;;;;;5041150;28;20316;-81
2024/01/22 10:46:26;;;;;;;1.60;1.50;;;;;;;;;;5041944;28;20240;-86
2024/01/22 10:48:56;;;;;;;1.70;1.50;;;;;;;;;;5007658;28;21854;-83
2024/01/22 10:51:26;;;;;;;1.67;1.40;;;;;;;;;;5003348;28;20213;-80
2024/01/22 10:53:54;;;;;;;1.70;1.40;;;;;;;;;;5023360;28;20230;-81
2024/01/22 10:56:23;;;;;;;1.50;1.40;;;;;;;;;;5021065;28;20245;-80
2024/01/22 10:58:52;;;;;;;1.30;1.20;;;;;;;;;;5022500;28;20215;-81
2024/01/22 11:01:24;;;;;;;1.10;1.10;;;;;;;;;;5005133;28;20207;-82
2024/01/22 11:03:56;;;;;;;1.50;1.40;;;;;;;;;;5009496;28;20298;-83
2024/01/22 11:06:30;;;;;;;1.90;1.50;;;;;;;;;;5020575;28;20199;-82
2024/01/22 11:09:00;;;;;;;2.60;1.40;;;;;;;;;;5001432;28;20705;-85
2024/01/22 11:11:28;;;;;;;1.73;1.43;;;;;;;;;;5022618;28;20302;-84
2024/01/22 11:13:59;;;;;;;1.33;1.23;;;;;;;;;;5026173;28;20231;-82
2024/01/22 11:16:27;;;;;;;1.93;1.40;;;;;;;;;;5013817;28;21263;-85
2024/01/22 11:19:00;;;;;;;1.40;1.40;;;;;;;;;;5004564;28;20199;-83
2024/01/22 11:21:33;;;;;;;1.67;1.57;;;;;;;;;;5004593;28;20199;-85
2024/01/22 11:24:04;;;;;;;2.00;1.80;;;;;;;;;;5028463;28;20226;-84
2024/01/22 11:26:32;;;;;;;1.87;1.77;;;;;;;;;;5007897;28;20210;-82
2024/01/22 11:29:09;;;;;;;3.23;2.30;;;;;;;;;;5027989;28;20264;-85
2024/01/22 11:31:37;;;;;;;3.60;2.07;;;;;;;;;;5024246;28;20225;-83
2024/01/22 11:34:05;;;;;;;2.37;1.93;;;;;;;;;;5006663;28;20230;-81
2024/01/22 11:36:55;;;;;;;2.20;2.00;;;;;;;;;;5024193;28;20203;-87
2024/01/22 11:39:42;;;;;;;1.87;1.67;;;;;;;;;;5023099;28;20214;-85
2024/01/22 11:42:16;;;;;;;1.60;1.50;;;;;;;;;;5021189;28;20766;-81
2024/01/22 11:44:48;;;;;;;1.63;1.53;;;;;;;;;;5029126;28;20242;-83
2024/01/22 11:47:20;;;;;;;3.10;2.10;;;;;;;;;;5020354;28;20207;-86
2024/01/22 11:49:48;;;;;;;2.20;2.00;;;;;;;;;;5026368;28;20700;-82
2024/01/22 11:52:21;;;;;;;3.50;2.33;;;;;;;;;;5026856;28;20194;-85
2024/01/22 11:55:00;;;;;;;1.93;1.83;;;;;;;;;;5023211;28;20210;-86
2024/01/22 11:57:39;;;;;;;2.10;1.90;;;;;;;;;;5007518;28;20764;-83
2024/01/22 12:00:14;;;;;;;2.57;2.10;;;;;;;;;;5023123;28;20211;-83
2024/01/22 12:02:45;;;;;;;2.17;2.00;;;;;;;;;;5018453;28;20231;-77
2024/01/22 12:05:17;;;;;;;2.63;2.10;;;;;;;;;;5027054;28;20217;-80
2024/01/22 12:07:47;;;;;;;2.00;1.90;;;;;;;;;;5006667;28;20211;-85
2024/01/22 12:10:22;;;;;;;3.20;2.10;;;;;;;;;;5009983;28;20228;-83
2024/01/22 12:12:55;;;;;;;4.33;1.83;;;;;;;;;;5023169;28;20257;-82
2024/01/22 12:15:23;;;;;;;1.90;1.80;;;;;;;;;;5007798;28;20249;-84
2024/01/22 12:17:51;;;;;;;1.90;1.80;;;;;;;;;;5025270;28;20207;-83
2024/01/22 12:20:22;;;;;;;2.00;1.90;;;;;;;;;;5008964;28;20409;-84
2024/01/22 12:22:56;;;;;;;2.23;2.07;;;;;;;;;;5026150;28;20226;-85
2024/01/22 12:25:32;;;;;;;2.07;1.87;;;;;;;;;;5006736;28;20576;-80
2024/01/22 12:28:19;;;;;;;3.00;1.87;;;;;;;;;;5025823;28;20206;-79
2024/01/22 12:30:46;;;;;;;1.70;1.60;;;;;;;;;;5018286;28;20644;-88
2024/01/22 12:33:21;;;;;;;2.43;1.57;;;;;;;;;;5039507;28;20237;-80
2024/01/22 12:35:51;;;;;;;1.60;1.50;;;;;;;;;;5035217;28;20517;-81
2024/01/22 12:38:22;;;;;;;1.80;1.70;;;;;;;;;;5022808;28;21114;-82
2024/01/22 12:41:04;;;;;;;2.20;2.00;;;;;;;;;;5030554;28;20223;-82
2024/01/22 12:43:32;;;;;;;2.60;2.00;;;;;;;;;;5009834;28;20270;-85
2024/01/22 12:46:10;;;;;;;2.30;2.10;;;;;;;;;;5027704;28;20217;-80
2024/01/22 12:48:38;;;;;;;2.50;1.90;;;;;;;;;;5022821;28;20582;-79
2024/01/22 12:51:08;;;;;;;2.27;1.97;;;;;;;;;;5014623;28;20304;-82
2024/01/22 12:53:36;;;;;;;3.00;2.07;;;;;;;;;;5007581;28;20708;-82
2024/01/22 12:56:07;;;;;;;2.47;2.23;;;;;;;;;;5023552;28;20218;-82
2024/01/22 12:58:36;;;;;;;2.60;2.40;;;;;;;;;;5024464;28;20203;-84
2024/01/22 13:01:07;;;;;;;2.73;2.40;;;;;;;;;;5008630;28;20272;-88
2024/01/22 13:03:34;;;;;;;2.60;2.40;;;;;;;;;;5008036;28;20241;-81
2024/01/22 13:06:02;;;;;;;2.27;2.13;;;;;;;;;;5025991;28;20203;-83
2024/01/22 13:08:29;;;;;;;2.27;2.10;;;;;;;;;;5018775;28;20207;-83
2024/01/22 13:11:00;;;;;;;4.73;2.33;;;;;;;;;;5029824;28;20202;-85
2024/01/22 13:13:27;;;;;;;2.00;1.90;;;;;;;;;;5011148;28;20227;-80
2024/01/22 13:15:54;;;;;;;2.13;1.90;;;;;;;;;;5027018;28;20214;-82
2024/01/22 13:18:42;;;;;;;2.17;1.97;;;;;;;;;;5034754;28;20325;-80
2024/01/22 13:21:10;;;;;;;2.47;2.00;;;;;;;;;;5026006;28;20224;-83
2024/01/22 13:23:38;;;;;;;3.93;1.93;;;;;;;;;;5011194;28;20234;-83
2024/01/22 13:26:05;;;;;;;1.60;1.50;;;;;;;;;;5031266;28;20214;-81
2024/01/22 13:28:33;;;;;;;3.07;1.97;;;;;;;;;;5013185;28;20442;-82
2024/01/22 13:31:01;;;;;;;1.70;1.60;;;;;;;;;;5026637;28;20756;-85
2024/01/22 13:33:28;;;;;;;1.87;1.50;;;;;;;;;;5029125;28;20227;-83
2024/01/22 13:35:55;;;;;;;2.97;1.60;;;;;;;;;;5023751;28;20207;-80
2024/01/22 13:38:23;;;;;;;4.17;1.53;;;;;;;;;;5004288;28;20207;-82
2024/01/22 13:40:50;;;;;;;2.77;1.70;;;;;;;;;;5030711;28;20210;-82
2024/01/22 13:43:18;;;;;;;3.90;1.90;;;;;;;;;;5027234;28;20231;-84
2024/01/22 13:45:47;;;;;;;5.17;3.27;;;;;;;;;;5026084;28;20211;-82
2024/01/22 13:48:14;;;;;;;2.60;1.83;;;;;;;;;;5024829;28;20283;-83
2024/01/22 13:50:42;;;;;;;1.90;1.80;;;;;;;;;;5028200;28;20241;-83
2024/01/22 13:53:10;;;;;;;2.00;1.80;;;;;;;;;;5024329;28;20219;-85
2024/01/22 13:55:38;;;;;;;4.37;2.80;;;;;;;;;;5032362;28;20796;-86
2024/01/22 13:58:07;;;;;;;3.07;2.77;;;;;;;;;;5029638;28;22691;-82
2024/01/22 14:00:36;;;;;;;4.43;3.00;;;;;;;;;;5005258;28;20215;-81
2024/01/22 14:03:05;;;;;;;3.53;3.10;;;;;;;;;;5030908;28;20604;-83
2024/01/22 14:05:32;;;;;;;2.53;2.27;;;;;;;;;;5006913;28;20227;-83
2024/01/22 14:08:02;;;;;;;4.50;2.83;;;;;;;;;;5027636;28;20203;-83
2024/01/22 14:10:30;;;;;;;3.63;2.50;;;;;;;;;;5025782;28;20855;-83
2024/01/22 14:12:57;;;;;;;3.03;2.77;;;;;;;;;;5004243;28;20237;-82
2024/01/22 14:15:26;;;;;;;4.07;2.90;;;;;;;;;;5021421;28;20235;-81
2024/01/22 14:17:54;;;;;;;3.10;2.80;;;;;;;;;;5006866;28;20234;-84
2024/01/22 14:20:22;;;;;;;3.60;2.27;;;;;;;;;;5016694;28;20263;-82
2024/01/22 14:22:51;;;;;;;2.60;2.40;;;;;;;;;;5007613;28;20238;-83
2024/01/22 14:25:19;;;;;;;2.30;2.10;;;;;;;;;;5027024;28;20276;-80
2024/01/22 14:27:48;;;;;;;2.20;2.00;;;;;;;;;;5026312;28;20203;-85
2024/01/22 14:30:16;;;;;;;2.83;2.20;;;;;;;;;;5007836;28;20199;-83
2024/01/22 14:32:44;;;;;;;2.83;2.03;;;;;;;;;;5032296;28;20219;-81
2024/01/22 14:35:14;;;;;;;3.90;2.03;;;;;;;;;;5021477;28;20210;-85
2024/01/22 14:37:41;;;;;;;2.30;2.10;;;;;;;;;;5024875;28;20298;-82
2024/01/22 14:40:09;;;;;;;2.10;2.00;;;;;;;;;;5020650;28;20211;-85
2024/01/22 14:42:37;;;;;;;2.60;2.40;;;;;;;;;;5010061;28;20361;-85
2024/01/22 14:45:08;;;;;;;5.43;2.37;;;;;;;;;;5022947;28;20249;-82
2024/01/22 14:47:36;;;;;;;4.10;2.70;;;;;;;;;;5009258;28;20203;-82
2024/01/22 14:50:03;;;;;;;4.00;2.67;;;;;;;;;;5026928;28;20208;-85
2024/01/22 14:52:31;;;;;;;4.00;2.80;;;;;;;;;;5003285;28;20583;-83